Time;durP1;ratioP1;P1;durP2;ratioP2;P2;SDS_P1;SDS_P2;PMS_P1;PMS_P2;Temp;Humidity;BMP_temperature;BMP_pressure;BME280_temperature;BME280_humidity;BME280_pressure;Samples;Min_cycle;Max_cycle;Signal;HPM_P1;HPM_P2
2023/06/13 00:00:20;;;;;;;1.35;0.90;;;;;;;13.80;70.64;99529.56;5036794;28;20057;-63
2023/06/13 00:02:48;;;;;;;0.45;0.45;;;;;;;13.90;69.98;99529.38;5037096;28;20045;-62
2023/06/13 00:05:21;;;;;;;0.70;0.70;;;;;;;14.00;69.24;99527.50;5036648;28;20143;-62
2023/06/13 00:07:50;;;;;;;0.60;0.50;;;;;;;13.98;69.77;99530.13;5036675;28;20056;-62
2023/06/13 00:10:20;;;;;;;0.77;0.77;;;;;;;13.94;70.04;99522.50;5036611;28;20529;-63
2023/06/13 00:12:51;;;;;;;0.38;0.38;;;;;;;13.89;69.87;99519.16;5036441;28;20056;-63
2023/06/13 00:15:20;;;;;;;1.00;0.95;;;;;;;13.78;70.83;99521.03;5036457;28;20483;-63
2023/06/13 00:17:49;;;;;;;0.47;0.47;;;;;;;13.78;71.13;99510.78;5036721;28;20411;-63
2023/06/13 00:20:18;;;;;;;0.63;0.63;;;;;;;13.71;71.12;99509.19;5036443;28;20045;-63
2023/06/13 00:22:47;;;;;;;0.45;0.45;;;;;;;13.62;72.11;99515.31;5036482;28;20041;-63
2023/06/13 00:25:16;;;;;;;0.70;0.70;;;;;;;13.65;72.04;99510.16;5036666;28;20549;-62
2023/06/13 00:27:45;;;;;;;0.57;0.52;;;;;;;13.50;72.19;99500.13;5035382;28;20406;-63
2023/06/13 00:30:17;;;;;;;1.02;0.90;;;;;;;13.36;72.65;99497.75;5035051;28;20045;-63
2023/06/13 00:32:46;;;;;;;0.40;0.40;;;;;;;13.27;73.24;99502.16;5036183;28;20417;-62
2023/06/13 00:35:15;;;;;;;0.85;0.75;;;;;;;13.09;73.78;99502.44;5035945;28;20057;-63
2023/06/13 00:37:44;;;;;;;0.40;0.40;;;;;;;12.88;74.53;99465.13;5034930;28;20100;-63
2023/06/13 00:40:14;;;;;;;0.50;0.50;;;;;;;12.91;74.25;99492.41;5051748;28;20287;-62
2023/06/13 00:42:43;;;;;;;0.30;0.30;;;;;;;12.82;74.29;99493.38;5035914;28;20046;-63
2023/06/13 00:45:33;;;;;;;1.20;0.70;;;;;;;12.77;74.32;99490.88;5036027;28;20046;-62
2023/06/13 00:48:05;;;;;;;0.47;0.47;;;;;;;12.70;74.19;99488.41;5035951;28;20053;-62
2023/06/13 00:50:36;;;;;;;0.40;0.40;;;;;;;12.54;74.16;99486.91;5036186;28;20056;-62
2023/06/13 00:53:09;;;;;;;0.60;0.60;;;;;;;12.51;74.30;99482.66;5036065;28;20052;-62
2023/06/13 00:55:40;;;;;;;0.50;0.50;;;;;;;12.38;74.24;99481.09;5036519;28;20072;-63
2023/06/13 00:58:10;;;;;;;0.57;0.57;;;;;;;12.35;74.43;99480.28;5035766;28;20041;-63
2023/06/13 01:00:43;;;;;;;0.82;0.82;;;;;;;12.21;74.40;99472.78;5035951;28;20052;-63
2023/06/13 01:03:15;;;;;;;0.52;0.52;;;;;;;12.23;74.41;99475.31;5035855;28;20480;-63
2023/06/13 01:05:46;;;;;;;0.65;0.65;;;;;;;12.29;74.33;99470.09;5033961;28;20041;-62
2023/06/13 01:08:18;;;;;;;0.60;0.60;;;;;;;12.43;74.35;99468.28;5035784;28;20045;-63
2023/06/13 01:10:52;;;;;;;0.52;0.52;;;;;;;12.30;74.38;99467.56;5035543;28;20049;-62
2023/06/13 01:13:29;;;;;;;0.30;0.30;;;;;;;12.22;74.41;99453.13;5034581;28;20392;-63
2023/06/13 01:16:07;;;;;;;0.50;0.50;;;;;;;12.29;74.25;99470.09;5035713;28;20048;-63
2023/06/13 01:18:43;;;;;;;0.40;0.40;;;;;;;12.20;74.40;99470.22;5035322;28;20045;-62
2023/06/13 01:21:14;;;;;;;0.50;0.50;;;;;;;12.06;74.49;99461.00;5034121;28;20050;-63
2023/06/13 01:23:52;;;;;;;0.45;0.45;;;;;;;12.15;74.64;99477.09;5035499;28;20120;-63
2023/06/13 01:26:42;;;;;;;0.45;0.45;;;;;;;12.18;74.73;99472.81;5035429;28;20041;-62
2023/06/13 01:29:12;;;;;;;2.05;1.33;;;;;;;12.13;74.78;99468.59;5034303;28;20064;-63
2023/06/13 01:31:43;;;;;;;0.57;0.57;;;;;;;11.94;74.93;99473.91;5035435;28;20422;-63
2023/06/13 01:34:13;;;;;;;0.70;0.70;;;;;;;11.90;75.55;99467.09;5035200;28;20072;-63
2023/06/13 01:36:42;;;;;;;0.32;0.32;;;;;;;11.91;75.97;99473.06;5034937;28;20050;-63
2023/06/13 01:39:11;;;;;;;0.75;0.75;;;;;;;11.96;75.90;99477.28;5034051;28;20057;-63
2023/06/13 01:41:43;;;;;;;0.40;0.40;;;;;;;11.88;75.99;99463.72;5033818;28;20072;-63
2023/06/13 01:44:19;;;;;;;0.70;0.70;;;;;;;11.76;76.11;99462.97;5033597;28;20054;-63
2023/06/13 01:46:58;;;;;;;0.32;0.32;;;;;;;11.61;76.23;99468.22;5033784;28;20041;-63
2023/06/13 01:49:39;;;;;;;0.50;0.50;;;;;;;11.53;76.64;99460.59;5033902;28;20069;-62
2023/06/13 01:52:24;;;;;;;0.73;0.73;;;;;;;11.50;76.93;99464.88;5033820;28;20079;-63
2023/06/13 01:54:58;;;;;;;0.45;0.45;;;;;;;11.37;77.10;99462.41;5033301;28;20042;-63
2023/06/13 01:57:34;;;;;;;0.40;0.40;;;;;;;11.37;77.32;99459.84;5034978;28;20443;-62
2023/06/13 02:00:03;;;;;;;0.82;0.80;;;;;;;11.45;77.55;99464.91;5033651;28;20517;-63
2023/06/13 02:02:43;;;;;;;0.32;0.32;;;;;;;11.50;77.27;99464.88;5034574;28;20045;-63
2023/06/13 02:05:13;;;;;;;0.50;0.50;;;;;;;11.30;77.08;99436.94;5034444;28;20068;-62
2023/06/13 02:07:42;;;;;;;1.42;1.33;;;;;;;11.40;77.10;99464.09;5034472;28;20061;-62
2023/06/13 02:10:11;;;;;;;1.70;1.03;;;;;;;11.31;77.20;99459.06;5033425;28;20045;-63
2023/06/13 02:12:42;;;;;;;;;;;;;;;11.26;77.42;99460.78;5035069;28;20057;-62
2023/06/13 02:15:11;;;;;;;0.82;0.82;;;;;;;11.18;77.55;99457.47;5034072;28;19975;-63
2023/06/13 02:17:41;;;;;;;0.40;0.40;;;;;;;11.21;77.80;99463.38;5034406;28;20458;-62
2023/06/13 02:20:11;;;;;;;;;;;;;;;11.28;77.67;99464.19;5033447;28;20302;-62
2023/06/13 02:22:40;;;;;;;0.98;0.95;;;;;;;11.25;77.37;99466.78;5034250;28;20367;-62
2023/06/13 02:25:10;;;;;;;0.45;0.45;;;;;;;11.29;77.44;99460.78;5032882;28;20069;-63
2023/06/13 02:27:39;;;;;;;;;;;;;;;11.32;77.02;99460.78;5034698;28;20053;-63
2023/06/13 02:30:11;;;;;;;;;;;;;;;11.28;76.89;99453.97;5035044;28;19921;-63
2023/06/13 02:32:41;;;;;;;0.50;0.50;;;;;;;11.36;76.73;99462.44;5032833;28;20422;-62
2023/06/13 02:35:12;;;;;;;0.28;0.28;;;;;;;11.38;76.52;99458.16;5033684;28;20073;-62
2023/06/13 02:37:43;;;;;;;0.40;0.40;;;;;;;11.25;76.44;99448.91;5034199;28;20046;-62
2023/06/13 02:40:12;;;;;;;0.43;0.43;;;;;;;11.29;76.30;99450.56;5033891;28;20053;-62
2023/06/13 02:42:46;;;;;;;0.40;0.40;;;;;;;11.04;76.25;99449.03;5032920;28;20712;-62
2023/06/13 02:45:17;;;;;;;0.70;0.70;;;;;;;10.89;76.73;99449.13;5033799;28;20042;-62
2023/06/13 02:47:47;;;;;;;0.68;0.68;;;;;;;10.84;77.12;99445.75;5033583;28;20046;-62
2023/06/13 02:50:16;;;;;;;0.82;0.82;;;;;;;10.93;76.90;99450.81;5034254;28;20419;-62
2023/06/13 02:52:47;;;;;;;;;;;;;;;11.07;77.12;99443.91;5033156;28;20059;-62
2023/06/13 02:55:21;;;;;;;0.68;0.68;;;;;;;11.13;76.52;99451.53;5032697;28;20283;-63
2023/06/13 02:57:49;;;;;;;0.95;0.82;;;;;;;11.00;76.36;99457.56;5032374;28;20048;-62
2023/06/13 03:00:20;;;;;;;0.30;0.30;;;;;;;10.84;76.49;99450.88;5032694;28;20434;-63
2023/06/13 03:03:03;;;;;;;0.75;0.60;;;;;;;10.77;76.63;99448.31;5034122;28;20547;-62
2023/06/13 03:05:37;;;;;;;1.33;0.65;;;;;;;10.74;77.32;99448.38;5032440;28;20046;-63
2023/06/13 03:08:10;;;;;;;0.73;0.73;;;;;;;10.73;77.19;99449.22;5033730;28;20137;-63
2023/06/13 03:10:40;;;;;;;0.63;0.63;;;;;;;10.78;77.22;99457.69;5033520;28;20042;-63
2023/06/13 03:13:09;;;;;;;0.30;0.30;;;;;;;10.93;77.62;99453.34;5032360;28;20132;-63
2023/06/13 03:15:41;;;;;;;1.55;1.42;;;;;;;11.04;76.95;99454.97;5033644;28;20045;-63
2023/06/13 03:18:11;;;;;;;0.30;0.30;;;;;;;11.09;76.44;99447.28;5032536;28;20116;-62
2023/06/13 03:20:46;;;;;;;0.30;0.30;;;;;;;11.20;76.34;99445.53;5033488;28;20076;-63
2023/06/13 03:23:17;;;;;;;0.50;0.50;;;;;;;11.27;75.89;99447.19;5033488;28;20053;-63
2023/06/13 03:25:46;;;;;;;0.50;0.50;;;;;;;11.36;75.60;99449.66;5033622;28;20513;-63
2023/06/13 03:28:15;;;;;;;1.83;1.00;;;;;;;11.35;75.22;99430.06;5034708;28;20064;-63
2023/06/13 03:30:46;;;;;;;0.35;0.35;;;;;;;11.48;75.15;99441.03;5037416;28;20267;-63
2023/06/13 03:33:15;;;;;;;0.40;0.40;;;;;;;11.56;74.44;99445.25;5036222;28;20056;-63
2023/06/13 03:35:46;;;;;;;0.60;0.60;;;;;;;11.56;74.47;99440.13;5035923;28;20050;-63
2023/06/13 03:38:20;;;;;;;0.80;0.80;;;;;;;11.57;74.60;99446.91;5037173;28;20092;-63
2023/06/13 03:40:49;;;;;;;0.40;0.40;;;;;;;11.59;74.56;99449.47;5037147;28;20050;-62
2023/06/13 03:43:18;;;;;;;0.53;0.53;;;;;;;11.67;74.64;99440.88;5036285;28;20056;-63
2023/06/13 03:45:49;;;;;;;0.50;0.50;;;;;;;11.66;74.46;99438.34;5019871;28;20137;-62
2023/06/13 03:48:18;;;;;;;0.50;0.50;;;;;;;11.63;74.43;99446.88;5036931;28;20278;-63
2023/06/13 03:50:47;;;;;;;0.60;0.60;;;;;;;11.48;74.64;99452.13;5035828;28;20128;-62
2023/06/13 03:53:17;;;;;;;1.70;1.55;;;;;;;11.46;74.96;99443.63;5035715;28;20045;-63
2023/06/13 03:55:46;;;;;;;0.38;0.38;;;;;;;11.50;75.43;99439.31;5035643;28;20052;-62
2023/06/13 03:58:15;;;;;;;8.83;1.27;;;;;;;11.58;75.25;99446.06;5036833;28;20095;-63
2023/06/13 04:00:44;;;;;;;0.40;0.40;;;;;;;11.67;75.22;99448.53;5035915;28;20772;-63
2023/06/13 04:03:16;;;;;;;1.75;1.27;;;;;;;11.79;75.31;99443.34;5036789;28;20124;-63
2023/06/13 04:05:45;;;;;;;0.50;0.50;;;;;;;11.86;75.06;99449.25;5036762;28;20068;-62
2023/06/13 04:08:14;;;;;;;1.23;1.13;;;;;;;11.91;74.97;99453.47;5036724;28;20076;-63
2023/06/13 04:10:43;;;;;;;1.40;1.02;;;;;;;11.94;75.02;99453.44;5036488;28;20315;-63
2023/06/13 04:13:12;;;;;;;0.53;0.53;;;;;;;12.07;75.03;99449.88;5036926;28;20622;-63
2023/06/13 04:15:41;;;;;;;1.33;1.23;;;;;;;12.25;74.65;99441.16;5035211;28;20041;-62
2023/06/13 04:18:10;;;;;;;0.55;0.55;;;;;;;12.40;73.95;99448.69;5036405;28;20056;-63
2023/06/13 04:20:41;;;;;;;0.30;0.30;;;;;;;12.55;73.22;99452.72;5036313;28;20129;-63
2023/06/13 04:23:11;;;;;;;0.50;0.50;;;;;;;12.71;72.53;99444.88;5035490;28;20049;-63
2023/06/13 04:25:40;;;;;;;0.80;0.80;;;;;;;12.92;71.87;99448.84;5035191;28;20054;-62
2023/06/13 04:28:10;;;;;;;0.52;0.47;;;;;;;13.08;70.88;99447.78;5036341;28;20048;-63
2023/06/13 04:30:40;;;;;;;2.22;0.95;;;;;;;13.20;70.06;99450.16;5036383;28;20056;-62
2023/06/13 04:33:16;;;;;;;0.50;0.50;;;;;;;13.27;69.23;99441.50;5035364;28;20057;-63
2023/06/13 04:35:48;;;;;;;0.60;0.60;;;;;;;13.38;68.58;99439.63;5034825;28;20492;-63
2023/06/13 04:38:20;;;;;;;0.40;0.40;;;;;;;13.47;68.13;99448.03;5036307;28;20069;-62
2023/06/13 04:40:49;;;;;;;1.45;0.88;;;;;;;13.67;68.12;99451.13;5036006;28;20049;-62
2023/06/13 04:43:18;;;;;;;1.20;1.10;;;;;;;13.74;67.54;99442.44;5036082;28;20053;-63
2023/06/13 04:45:48;;;;;;;0.50;0.50;;;;;;;13.78;67.36;99444.09;5035931;28;20056;-62
2023/06/13 04:48:17;;;;;;;0.60;0.60;;;;;;;13.91;66.95;99430.19;5036215;28;20057;-62
2023/06/13 04:50:48;;;;;;;1.30;1.20;;;;;;;14.13;67.08;99436.63;5035841;28;20063;-63
2023/06/13 04:53:21;;;;;;;0.90;0.90;;;;;;;14.30;66.85;99444.84;5035849;28;20069;-63
2023/06/13 04:55:50;;;;;;;0.63;0.60;;;;;;;14.50;66.18;99427.31;5035762;28;20042;-63
2023/06/13 04:58:19;;;;;;;1.80;1.30;;;;;;;14.68;65.23;99436.38;5035728;28;20057;-63
2023/06/13 05:00:49;;;;;;;0.43;0.43;;;;;;;14.87;64.49;99437.66;5035626;28;20045;-63
2023/06/13 05:03:18;;;;;;;1.15;1.05;;;;;;;14.91;64.36;99428.16;5035560;28;20052;-63
2023/06/13 05:05:50;;;;;;;1.05;0.95;;;;;;;15.08;64.03;99436.34;5035872;28;20045;-63
2023/06/13 05:08:21;;;;;;;0.80;0.80;;;;;;;15.21;63.33;99427.47;5035639;28;20042;-63
2023/06/13 05:10:50;;;;;;;1.05;0.75;;;;;;;15.28;62.93;99423.88;5035369;28;20128;-63
2023/06/13 05:13:18;;;;;;;0.43;0.43;;;;;;;15.41;62.65;99427.81;5035590;28;20132;-62
2023/06/13 05:15:47;;;;;;;0.80;0.80;;;;;;;15.51;61.74;99426.75;5035517;28;20099;-63
2023/06/13 05:18:17;;;;;;;0.77;0.77;;;;;;;15.60;61.76;99423.09;5035201;28;20048;-63
2023/06/13 05:20:46;;;;;;;1.35;1.05;;;;;;;15.75;61.14;99420.16;5035660;28;20136;-63
2023/06/13 05:23:20;;;;;;;0.40;0.40;;;;;;;15.84;59.72;99415.59;5034594;28;20419;-63
2023/06/13 05:25:49;;;;;;;1.40;0.82;;;;;;;15.99;59.02;99415.22;5035214;28;20061;-63
2023/06/13 05:28:19;;;;;;;2.10;0.82;;;;;;;16.10;58.41;99410.59;5035137;28;20475;-63
2023/06/13 05:30:48;;;;;;;0.60;0.60;;;;;;;16.22;56.95;99403.44;5035050;28;20053;-63
2023/06/13 05:33:17;;;;;;;1.02;0.75;;;;;;;16.29;55.57;99402.38;5035261;28;20042;-63
2023/06/13 05:35:46;;;;;;;0.70;0.70;;;;;;;16.34;54.96;99410.81;5034891;28;20053;-63
2023/06/13 05:38:27;;;;;;;0.47;0.47;;;;;;;16.50;54.84;99392.31;5034949;28;20144;-63
2023/06/13 05:40:56;;;;;;;0.40;0.40;;;;;;;16.65;54.90;99391.03;5035203;28;20044;-63
2023/06/13 05:43:25;;;;;;;2.27;1.27;;;;;;;16.68;54.23;99401.22;5034819;28;20057;-63
2023/06/13 05:45:54;;;;;;;0.57;0.57;;;;;;;16.71;54.23;99396.84;5033891;28;20447;-62
2023/06/13 05:48:23;;;;;;;0.40;0.40;;;;;;;16.70;54.19;99404.59;5034740;28;20045;-63
2023/06/13 05:50:53;;;;;;;0.40;0.40;;;;;;;16.78;53.98;99397.50;5034951;28;20050;-63
2023/06/13 05:53:23;;;;;;;0.40;0.40;;;;;;;16.96;54.18;99411.56;5034610;28;20080;-63
2023/06/13 05:55:53;;;;;;;0.50;0.50;;;;;;;17.02;53.66;99399.31;5034927;28;20499;-63
2023/06/13 05:58:22;;;;;;;1.02;0.82;;;;;;;17.00;53.22;99406.28;5034269;28;20073;-63
2023/06/13 06:00:52;;;;;;;0.60;0.60;;;;;;;17.10;53.33;99410.25;5034191;28;20055;-63
2023/06/13 06:03:20;;;;;;;0.60;0.60;;;;;;;17.06;52.80;99408.63;5034013;28;20099;-63
2023/06/13 06:05:49;;;;;;;0.60;0.60;;;;;;;17.00;52.77;99408.84;5034269;28;20118;-63
2023/06/13 06:08:18;;;;;;;0.60;0.60;;;;;;;17.04;52.70;99417.31;5034278;28;20077;-63
2023/06/13 06:10:47;;;;;;;0.90;0.90;;;;;;;17.10;53.12;99410.25;5034282;28;20060;-63
2023/06/13 06:13:17;;;;;;;0.60;0.60;;;;;;;17.24;53.49;99413.22;5034608;28;20050;-63
2023/06/13 06:15:46;;;;;;;0.85;0.80;;;;;;;17.35;53.52;99416.28;5034121;28;20096;-63
2023/06/13 06:18:15;;;;;;;0.47;0.47;;;;;;;17.42;53.67;99415.22;5034092;28;20041;-63
2023/06/13 06:20:45;;;;;;;0.63;0.63;;;;;;;17.48;53.45;99413.31;5034453;28;20111;-63
2023/06/13 06:23:14;;;;;;;0.40;0.40;;;;;;;17.53;53.76;99411.47;5034459;28;20041;-63
2023/06/13 06:25:43;;;;;;;1.20;1.10;;;;;;;17.74;53.06;99410.75;5034330;28;20488;-63
2023/06/13 06:28:12;;;;;;;0.40;0.40;;;;;;;17.72;51.51;99409.97;5034568;28;20128;-63
2023/06/13 06:30:42;;;;;;;0.70;0.60;;;;;;;17.75;51.06;99404.69;5034042;28;20349;-63
2023/06/13 06:33:11;;;;;;;0.60;0.60;;;;;;;17.84;49.59;99404.38;5033980;28;20047;-63
2023/06/13 06:35:40;;;;;;;0.40;0.40;;;;;;;17.89;49.00;99402.47;5033797;28;20050;-63
2023/06/13 06:38:09;;;;;;;4.00;1.27;;;;;;;17.88;49.26;99369.78;5033610;28;20053;-63
2023/06/13 06:40:38;;;;;;;4.05;1.30;;;;;;;18.16;48.64;99406.69;5034096;28;20294;-63
2023/06/13 06:43:07;;;;;;;0.77;0.77;;;;;;;18.22;47.90;99400.44;5033810;28;20060;-63
2023/06/13 06:45:37;;;;;;;0.85;0.70;;;;;;;18.36;47.44;99408.53;5033665;28;20289;-63
2023/06/13 06:48:08;;;;;;;1.92;1.77;;;;;;;18.32;47.37;99392.31;5033771;28;20042;-63
2023/06/13 06:50:37;;;;;;;0.50;0.50;;;;;;;18.42;47.42;99400.56;5033665;28;20156;-63
2023/06/13 06:53:05;;;;;;;0.68;0.68;;;;;;;18.42;47.55;99397.97;5033934;28;20049;-63
2023/06/13 06:55:34;;;;;;;1.07;1.07;;;;;;;18.51;47.61;99393.34;5033723;28;20057;-63
2023/06/13 06:58:03;;;;;;;2.00;0.77;;;;;;;18.47;47.74;99365.94;5033682;28;20052;-63
2023/06/13 07:00:32;;;;;;;0.88;0.63;;;;;;;18.69;47.98;99397.78;5033656;28;20486;-63
2023/06/13 07:03:01;;;;;;;7.00;0.82;;;;;;;18.70;48.16;99365.88;5032185;28;20483;-63
2023/06/13 07:05:31;;;;;;;12.10;1.35;;;;;;;19.04;48.58;99393.00;5033844;28;20081;-63
2023/06/13 07:08:00;;;;;;;4.88;0.80;;;;;;;19.11;48.26;99389.28;5033846;28;20049;-63
2023/06/13 07:10:29;;;;;;;0.50;0.50;;;;;;;19.04;47.96;99388.69;5033441;28;20049;-63
2023/06/13 07:12:58;;;;;;;1.20;0.97;;;;;;;19.00;48.00;99391.47;5033438;28;20057;-63
2023/06/13 07:15:27;;;;;;;1.83;0.85;;;;;;;19.06;47.43;99392.06;5033661;28;20041;-63
2023/06/13 07:17:56;;;;;;;0.50;0.50;;;;;;;19.21;47.19;99390.59;5033665;28;20045;-63
2023/06/13 07:20:26;;;;;;;0.50;0.50;;;;;;;19.18;46.06;99390.72;5033398;28;20058;-63
2023/06/13 07:22:56;;;;;;;1.08;0.93;;;;;;;19.22;46.12;99398.28;5033414;28;20077;-63
2023/06/13 07:25:27;;;;;;;0.60;0.60;;;;;;;19.27;45.59;99391.19;5033243;28;20388;-63
2023/06/13 07:27:56;;;;;;;2.03;1.75;;;;;;;19.32;45.67;99388.41;5033226;28;20041;-63
2023/06/13 07:30:25;;;;;;;0.40;0.40;;;;;;;19.34;46.31;99384.00;5033551;28;20049;-63
2023/06/13 07:32:54;;;;;;;0.50;0.50;;;;;;;19.38;46.39;99390.78;5033520;28;20053;-62
2023/06/13 07:35:26;;;;;;;0.60;0.60;;;;;;;19.38;46.04;99370.09;5033347;28;20128;-62
2023/06/13 07:37:57;;;;;;;0.50;0.50;;;;;;;19.49;46.30;99367.88;5032204;28;20053;-62
2023/06/13 07:40:26;;;;;;;0.47;0.47;;;;;;;19.60;46.00;99357.94;5033266;28;20068;-62
2023/06/13 07:42:55;;;;;;;0.83;0.83;;;;;;;19.83;45.64;99375.91;5033188;28;20057;-62
2023/06/13 07:45:24;;;;;;;0.40;0.40;;;;;;;19.66;46.12;99378.38;5033038;28;20305;-61
2023/06/13 07:47:57;;;;;;;0.90;0.90;;;;;;;19.96;45.92;99374.44;5033673;28;20048;-64
2023/06/13 07:50:26;;;;;;;0.50;0.50;;;;;;;20.04;44.79;99364.59;5033244;28;20447;-62
2023/06/13 07:52:55;;;;;;;0.53;0.53;;;;;;;20.00;44.26;99365.66;5033313;28;20052;-64
2023/06/13 07:55:26;;;;;;;0.50;0.50;;;;;;;20.22;44.05;99359.50;5033088;28;20080;-62
2023/06/13 07:57:55;;;;;;;0.93;0.88;;;;;;;20.28;43.50;99351.47;5033048;28;20447;-62
2023/06/13 08:00:28;;;;;;;0.40;0.40;;;;;;;20.45;43.62;99344.63;5033304;28;20046;-62
2023/06/13 08:02:57;;;;;;;1.00;0.63;;;;;;;20.49;43.31;99345.34;5048282;28;20045;-62
2023/06/13 08:05:27;;;;;;;0.50;0.50;;;;;;;20.53;43.23;99352.91;5032980;28;20136;-62
2023/06/13 08:07:57;;;;;;;0.75;0.75;;;;;;;20.59;43.01;99339.63;5033150;28;20046;-62
2023/06/13 08:10:27;;;;;;;0.57;0.57;;;;;;;20.82;43.51;99335.97;5033543;28;20132;-62
2023/06/13 08:12:59;;;;;;;1.65;0.68;;;;;;;21.10;44.23;99346.72;5033034;28;20578;-62
2023/06/13 08:15:28;;;;;;;0.40;0.40;;;;;;;21.03;41.25;99336.66;5034746;28;20152;-62
2023/06/13 08:17:57;;;;;;;0.57;0.57;;;;;;;21.05;38.66;99347.84;5036360;28;20060;-62
2023/06/13 08:20:27;;;;;;;1.20;1.05;;;;;;;20.94;38.20;99343.16;5036471;28;20507;-63
2023/06/13 08:22:56;;;;;;;0.60;0.60;;;;;;;20.98;37.87;99339.50;5036327;28;20104;-63
2023/06/13 08:25:25;;;;;;;0.50;0.50;;;;;;;20.99;37.77;99325.63;5036608;28;20050;-63
2023/06/13 08:27:56;;;;;;;0.95;0.80;;;;;;;21.13;37.65;99318.03;5036553;28;20076;-62
2023/06/13 08:30:25;;;;;;;1.15;0.57;;;;;;;21.23;37.69;99329.63;5036753;28;20383;-63
2023/06/13 08:32:54;;;;;;;1.50;0.67;;;;;;;21.42;37.34;99323.50;5036176;28;20060;-63
2023/06/13 08:35:24;;;;;;;1.58;0.98;;;;;;;21.49;36.42;99314.50;5034584;28;20507;-64
2023/06/13 08:37:54;;;;;;;0.57;0.57;;;;;;;21.48;35.96;99318.00;5036263;28;20107;-62
2023/06/13 08:40:23;;;;;;;1.60;0.77;;;;;;;21.46;35.72;99325.88;5036337;28;20148;-65
2023/06/13 08:42:52;;;;;;;0.47;0.47;;;;;;;21.48;35.57;99312.78;5035980;28;20053;-63
2023/06/13 08:45:23;;;;;;;0.45;0.45;;;;;;;21.48;35.41;99318.00;5036229;28;20055;-64
2023/06/13 08:47:53;;;;;;;0.73;0.73;;;;;;;21.64;35.54;99303.31;5035863;28;20403;-64
2023/06/13 08:50:26;;;;;;;1.50;0.95;;;;;;;21.73;35.33;99303.69;5035843;28;20046;-64
2023/06/13 08:52:58;;;;;;;0.60;0.60;;;;;;;21.62;34.66;99310.38;5036188;28;20053;-63
2023/06/13 08:55:30;;;;;;;1.40;0.80;;;;;;;21.55;34.71;99303.78;5036109;28;20053;-64
2023/06/13 08:58:21;;;;;;;0.43;0.43;;;;;;;21.70;34.96;99293.44;5035979;28;20429;-63
2023/06/13 09:00:51;;;;;;;0.40;0.40;;;;;;;21.88;34.38;99292.50;5035995;28;20133;-63
2023/06/13 09:03:21;;;;;;;6.93;1.27;;;;;;;22.00;34.83;99301.44;5035729;28;20128;-65
2023/06/13 09:05:52;;;;;;;0.35;0.35;;;;;;;21.96;33.23;99305.09;5035762;28;20046;-64
2023/06/13 09:08:21;;;;;;;0.60;0.60;;;;;;;21.82;33.43;99303.19;5035570;28;20060;-63
2023/06/13 09:10:55;;;;;;;0.60;0.60;;;;;;;21.88;33.53;99308.09;5035668;28;20037;-64
2023/06/13 09:13:25;;;;;;;0.60;0.60;;;;;;;21.89;33.30;99301.13;5035764;28;20062;-63
2023/06/13 09:15:56;;;;;;;0.90;0.50;;;;;;;21.99;33.32;99299.75;5035794;28;20045;-63
2023/06/13 09:18:27;;;;;;;0.40;0.40;;;;;;;22.13;33.36;99289.44;5035342;28;20050;-63
2023/06/13 09:20:57;;;;;;;0.50;0.50;;;;;;;22.33;33.63;99297.00;5035375;28;20128;-63
2023/06/13 09:23:26;;;;;;;0.57;0.57;;;;;;;22.51;34.09;99288.19;5035490;28;20488;-63
2023/06/13 09:25:56;;;;;;;;;;;;;;;22.73;33.75;99292.22;5035330;28;20506;-63
2023/06/13 09:28:30;;;;;;;0.70;0.60;;;;;;;22.77;33.39;99288.53;5035377;28;19944;-63
2023/06/13 09:31:00;;;;;;;0.30;0.30;;;;;;;22.77;32.93;99291.13;5035125;28;20068;-63
2023/06/13 09:33:30;;;;;;;0.50;0.50;;;;;;;22.76;34.21;99285.09;5035132;28;20048;-63
2023/06/13 09:35:58;;;;;;;0.40;0.40;;;;;;;22.88;34.36;99267.91;5035282;28;20558;-63
2023/06/13 09:38:34;;;;;;;0.60;0.60;;;;;;;23.10;34.41;99291.81;5035240;28;20046;-63
2023/06/13 09:41:05;;;;;;;0.40;0.40;;;;;;;23.07;34.66;99291.97;5034866;28;20158;-63
2023/06/13 09:43:34;;;;;;;1.77;1.08;;;;;;;23.05;34.31;99292.06;5034851;28;20049;-63
2023/06/13 09:46:04;;;;;;;1.08;0.88;;;;;;;23.19;34.60;99291.25;5034752;28;20041;-62
2023/06/13 09:48:33;;;;;;;0.40;0.40;;;;;;;23.22;34.06;99285.88;5034684;28;20049;-63
2023/06/13 09:51:22;;;;;;;0.50;0.50;;;;;;;;;;5033704;28;20077;-63
2023/06/13 09:53:51;;;;;;;0.40;0.40;;;;;;;23.25;34.46;99280.50;5035034;28;20045;-63
2023/06/13 09:56:20;;;;;;;0.65;0.57;;;;;;;23.38;34.29;99285.84;5034909;28;20125;-63
2023/06/13 09:58:53;;;;;;;0.40;0.40;;;;;;;23.37;34.37;99282.38;5034795;28;20132;-63
2023/06/13 10:01:23;;;;;;;0.40;0.40;;;;;;;23.43;34.86;99279.44;5035070;28;20061;-63
2023/06/13 10:03:53;;;;;;;0.95;0.70;;;;;;;23.49;34.86;99273.84;5034498;28;20045;-63
2023/06/13 10:06:22;;;;;;;0.40;0.40;;;;;;;23.87;37.96;99282.78;5034678;28;20099;-62
2023/06/13 10:08:51;;;;;;;0.47;0.47;;;;;;;23.86;37.24;99275.91;5034607;28;20128;-63
2023/06/13 10:11:24;;;;;;;1.50;0.83;;;;;;;23.75;36.07;99269.69;5034253;28;20108;-63
2023/06/13 10:14:01;;;;;;;0.40;0.40;;;;;;;23.84;36.29;99275.16;5034302;28;20283;-63
2023/06/13 10:16:40;;;;;;;0.50;0.50;;;;;;;23.88;35.39;99271.44;5034322;28;20041;-63
2023/06/13 10:19:27;;;;;;;0.50;0.50;;;;;;;23.56;34.70;99256.94;5034319;28;20044;-63
2023/06/13 10:21:57;;;;;;;0.50;0.50;;;;;;;23.70;36.84;99259.53;5034077;28;20083;-63
2023/06/13 10:24:27;;;;;;;0.40;0.40;;;;;;;23.74;35.66;99258.41;5032775;28;20407;-63
2023/06/13 10:27:00;;;;;;;0.43;0.43;;;;;;;23.72;34.55;99256.81;5033547;28;20131;-63
2023/06/13 10:29:57;;;;;;;0.70;0.70;;;;;;;23.69;34.73;99260.47;5034251;28;20116;-63
2023/06/13 10:32:47;;;;;;;0.40;0.40;;;;;;;23.46;33.99;99257.56;5033859;28;20136;-63
2023/06/13 10:35:31;;;;;;;;;;;;;;;23.18;34.40;99258.31;5034536;28;20057;-63
2023/06/13 10:38:33;;;;;;;0.60;0.60;;;;;;;23.10;34.50;99257.94;5029551;28;19921;-63
2023/06/13 10:41:29;;;;;;;0.50;0.50;;;;;;;23.01;34.56;99253.28;5033664;28;20056;-62
2023/06/13 10:44:03;;;;;;;0.35;0.35;;;;;;;23.51;37.40;99256.38;5033812;28;20494;-63
2023/06/13 10:46:34;;;;;;;0.60;0.60;;;;;;;23.58;36.36;99252.47;5033946;28;20496;-63
2023/06/13 10:49:04;;;;;;;0.50;0.50;;;;;;;23.74;36.50;99247.13;5034473;28;20054;-63
2023/06/13 10:51:33;;;;;;;0.77;0.60;;;;;;;23.89;35.14;99244.44;5033757;28;20130;-63
2023/06/13 10:54:11;;;;;;;0.63;0.60;;;;;;;23.97;34.37;99246.59;5033894;28;20053;-63
2023/06/13 10:56:42;;;;;;;1.25;0.93;;;;;;;24.24;35.41;99244.84;5034071;28;20069;-63
2023/06/13 10:59:13;;;;;;;0.95;0.88;;;;;;;24.55;36.59;99246.34;5033577;28;20052;-63
2023/06/13 11:01:43;;;;;;;0.57;0.57;;;;;;;24.67;35.85;99245.53;5033641;28;20072;-63
2023/06/13 11:04:15;;;;;;;1.15;1.02;;;;;;;24.55;35.06;99238.50;5033772;28;20446;-63
2023/06/13 11:06:46;;;;;;;0.43;0.43;;;;;;;24.82;37.10;99236.75;5033533;28;20090;-63
2023/06/13 11:09:16;;;;;;;0.65;0.65;;;;;;;24.89;36.25;99243.25;5033516;28;20053;-63
2023/06/13 11:11:50;;;;;;;0.60;0.60;;;;;;;24.54;34.37;99231.63;5033619;28;20413;-63
2023/06/13 11:14:24;;;;;;;0.70;0.70;;;;;;;24.69;34.08;99230.63;5033490;28;20046;-64
2023/06/13 11:16:54;;;;;;;0.77;0.60;;;;;;;24.75;33.70;99230.22;5033399;28;20045;-64
2023/06/13 11:19:26;;;;;;;0.65;0.60;;;;;;;24.76;33.16;99224.09;5033634;28;20045;-64
2023/06/13 11:22:13;;;;;;;0.93;0.85;;;;;;;24.58;33.33;99220.03;5033546;28;20072;-64
2023/06/13 11:24:42;;;;;;;1.20;0.50;;;;;;;24.66;32.98;99212.56;5034470;28;20041;-64
2023/06/13 11:27:12;;;;;;;0.40;0.40;;;;;;;24.61;32.87;99215.47;5033643;28;20092;-64
2023/06/13 11:29:41;;;;;;;0.43;0.43;;;;;;;24.60;33.30;99207.72;5033132;28;20498;-64
2023/06/13 11:32:12;;;;;;;0.50;0.50;;;;;;;24.84;34.84;99195.69;5033296;28;20136;-64
2023/06/13 11:34:44;;;;;;;0.57;0.50;;;;;;;24.61;33.73;99205.03;5033049;28;20057;-64
2023/06/13 11:37:25;;;;;;;0.43;0.43;;;;;;;24.60;34.06;99207.72;5033273;28;20053;-64
2023/06/13 11:39:58;;;;;;;0.40;0.40;;;;;;;24.72;33.84;99206.91;5033172;28;20515;-64
2023/06/13 11:42:30;;;;;;;1.42;0.93;;;;;;;24.77;33.21;99201.44;5033169;28;20041;-64
2023/06/13 11:45:03;;;;;;;0.60;0.60;;;;;;;24.62;33.03;99195.41;5032355;28;20048;-65
2023/06/13 11:47:32;;;;;;;0.50;0.50;;;;;;;24.52;32.79;99183.94;5033383;28;20431;-64
2023/06/13 11:50:03;;;;;;;0.45;0.45;;;;;;;24.85;34.29;99192.16;5037460;28;20056;-64
2023/06/13 11:52:32;;;;;;;0.40;0.40;;;;;;;24.89;33.28;99196.22;5036941;28;20057;-64
2023/06/13 11:55:01;;;;;;;0.57;0.57;;;;;;;24.87;33.36;99192.91;5036772;28;20057;-64